LIPK/FRL METAR and TAF weather

Enter ICAO airport designator
Station Type Date Time Source
LIPK METAR 2022/11/30 19:50 UTC NOAA

LIPK 301950Z 27004KT 9999 BKN045 06/00 Q1017


Station Type Date Time Source
LIPK Decoded METAR 2022/11/30 19:50 UTC NOAA

Forli, Italy (LIPK) 44-12N 012-04E 32M
Nov 30, 2022 - 02:50 PM EST / 2022.11.30 1950 UTC
Wind: from the W (270 degrees) at 5 MPH (4 KT):0
Visibility: greater than 7 mile(s):0
Sky conditions: mostly cloudy
Temperature: 42 F (6 C)
Dew Point: 32 F (0 C)
Relative Humidity: 65%
Pressure (altimeter): 30.03 in. Hg (1017 hPa)
ob: LIPK 301950Z 27004KT 9999 BKN045 06/00 Q1017
cycle: 20

Station Type Date Time Source
LIPK TAF 2022/11/30 18:21 UTC NOAA

TAF LIPK 301700Z 3018/0118 30010KT 9999 BKN040

Example: see airport list